createdAt,value
2023-02-14T00:01:51.990Z,102459.84
2023-02-14T00:04:20.046Z,102457.00
2023-02-14T00:06:48.388Z,102422.41
2023-02-14T00:09:19.835Z,102460.38
2023-02-14T00:11:47.904Z,102350.56
2023-02-14T00:14:35.631Z,102461.16
2023-02-14T00:17:04.023Z,102459.28
2023-02-14T00:19:32.098Z,102453.09
2023-02-14T00:22:03.074Z,102451.44
2023-02-14T00:24:30.841Z,102456.50
2023-02-14T00:27:00.191Z,102458.97
2023-02-14T00:29:31.837Z,102447.16
2023-02-14T00:32:00.900Z,102419.50
2023-02-14T00:34:33.586Z,102444.34
2023-02-14T00:37:01.518Z,102428.16
2023-02-14T00:39:29.824Z,102380.75
2023-02-14T00:41:57.723Z,102373.03
2023-02-14T00:44:25.782Z,102435.63
2023-02-14T00:46:53.778Z,102420.69
2023-02-14T00:49:24.383Z,102397.53
2023-02-14T00:51:52.217Z,102348.31
2023-02-14T00:54:20.125Z,102281.63
2023-02-14T00:56:48.666Z,102417.97
2023-02-14T00:59:20.400Z,102424.69
2023-02-14T01:01:48.213Z,102423.28
2023-02-14T01:04:16.241Z,102418.28
2023-02-14T01:06:44.429Z,102419.34
2023-02-14T01:09:14.221Z,102418.41
2023-02-14T01:11:42.740Z,102385.56
2023-02-14T01:14:10.629Z,102425.09
2023-02-14T01:16:39.431Z,102416.94
2023-02-14T01:19:09.325Z,102387.38
2023-02-14T01:21:37.153Z,102372.31
2023-02-14T01:24:07.904Z,102417.25
2023-02-14T01:26:37.252Z,102333.38
2023-02-14T01:29:05.842Z,102352.53
2023-02-14T01:31:36.004Z,102389.63
2023-02-14T01:34:04.510Z,102311.25
2023-02-14T01:36:36.586Z,102400.09
2023-02-14T01:39:08.427Z,102419.53
2023-02-14T01:41:38.315Z,102184.59
2023-02-14T01:44:06.059Z,102407.63
2023-02-14T01:46:38.194Z,102357.19
2023-02-14T01:49:29.052Z,102401.47
2023-02-14T01:52:04.305Z,102372.00
2023-02-14T01:54:35.784Z,102364.72
2023-02-14T01:57:09.174Z,102381.03
2023-02-14T01:59:43.627Z,102264.81
2023-02-14T02:02:11.827Z,102399.88
2023-02-14T02:04:43.851Z,102369.25
2023-02-14T02:07:18.994Z,102402.34
2023-02-14T02:09:57.964Z,102314.53
2023-02-14T02:12:25.989Z,102309.88
2023-02-14T02:14:56.919Z,102368.72
2023-02-14T02:17:46.891Z,102388.28
2023-02-14T02:20:36.425Z,102386.56
2023-02-14T02:23:32.346Z,102376.59
2023-02-14T02:26:14.888Z,102316.25
2023-02-14T02:29:27.589Z,102378.56
2023-02-14T02:31:58.365Z,102375.19
2023-02-14T02:34:39.752Z,102376.69
2023-02-14T02:37:16.631Z,102377.97
2023-02-14T02:40:29.337Z,102373.59
2023-02-14T02:43:18.108Z,102371.97
2023-02-14T02:46:21.066Z,102320.38
2023-02-14T02:49:04.974Z,102327.50
2023-02-14T02:52:10.007Z,102279.03
2023-02-14T02:54:42.788Z,102366.97
2023-02-14T02:57:20.491Z,102368.03
2023-02-14T02:59:52.397Z,102357.19
2023-02-14T03:02:25.678Z,102242.78
2023-02-14T03:05:03.412Z,102353.88
2023-02-14T03:07:40.759Z,102356.75
2023-02-14T03:10:18.281Z,102322.22
2023-02-14T03:13:10.293Z,102369.25
2023-02-14T03:16:15.298Z,102319.97
2023-02-14T03:18:44.668Z,102368.91
2023-02-14T03:21:40.445Z,102367.28
2023-02-14T03:24:20.333Z,102369.75
2023-02-14T03:26:51.881Z,102351.31
2023-02-14T03:29:30.904Z,102246.97
2023-02-14T03:32:08.399Z,102341.47
2023-02-14T03:34:52.415Z,102329.38
2023-02-14T03:38:01.385Z,102088.28
2023-02-14T03:40:36.698Z,102364.78
2023-02-14T03:43:19.502Z,102355.31
2023-02-14T03:46:12.523Z,102263.81
2023-02-14T03:48:42.315Z,102349.59
2023-02-14T03:51:12.537Z,102366.38
2023-02-14T03:53:44.988Z,102368.41
2023-02-14T03:56:28.319Z,102353.59
2023-02-14T03:58:59.322Z,102302.81
2023-02-14T04:01:47.119Z,102353.72
2023-02-14T04:04:15.703Z,102370.75
2023-02-14T04:06:44.096Z,102369.38
2023-02-14T04:09:12.207Z,102349.31
2023-02-14T04:11:40.974Z,102341.69
2023-02-14T04:14:08.864Z,102369.63
2023-02-14T04:16:57.445Z,102363.59
2023-02-14T04:19:26.717Z,102373.75
2023-02-14T04:21:54.786Z,102326.25
2023-02-14T04:24:22.580Z,102378.09
2023-02-14T04:27:10.625Z,102341.34
2023-02-14T04:29:46.973Z,102367.03
2023-02-14T04:32:17.880Z,102368.91
2023-02-14T04:34:46.017Z,102368.91
2023-02-14T04:37:15.460Z,102345.09
2023-02-14T04:39:43.339Z,102372.03
2023-02-14T04:42:11.973Z,102377.63
2023-02-14T04:44:40.106Z,102374.34
2023-02-14T04:47:10.265Z,102374.94
2023-02-14T04:49:38.307Z,102357.34
2023-02-14T04:52:06.951Z,102285.47
2023-02-14T04:54:34.837Z,102371.41
2023-02-14T04:57:02.651Z,102284.19
2023-02-14T04:59:30.586Z,102324.59
2023-02-14T05:01:58.444Z,102343.56
2023-02-14T05:04:29.358Z,102349.44
2023-02-14T05:06:57.193Z,102373.28
2023-02-14T05:09:25.040Z,102374.56
2023-02-14T05:11:53.025Z,102255.06
2023-02-14T05:14:22.244Z,102376.16
2023-02-14T05:16:50.163Z,102363.66
2023-02-14T05:19:17.966Z,102380.53
2023-02-14T05:21:45.691Z,102362.00
2023-02-14T05:24:13.593Z,102372.69
2023-02-14T05:26:41.728Z,102283.22
2023-02-14T05:29:09.601Z,102377.69
2023-02-14T05:31:37.758Z,102320.13
2023-02-14T05:34:05.652Z,102355.97
2023-02-14T05:36:33.642Z,102306.19
2023-02-14T05:39:01.389Z,102340.34
2023-02-14T05:41:29.112Z,102330.16
2023-02-14T05:43:56.942Z,102353.13
2023-02-14T05:46:24.748Z,102377.06
2023-02-14T05:48:52.669Z,102358.53
2023-02-14T05:51:20.746Z,102338.81
2023-02-14T05:53:48.513Z,102383.44
2023-02-14T05:56:16.355Z,102369.69
2023-02-14T05:58:44.803Z,102282.03
2023-02-14T06:01:12.718Z,102161.41
2023-02-14T06:03:40.705Z,102313.69
2023-02-14T06:06:09.760Z,102335.81
2023-02-14T06:08:37.588Z,102379.91
2023-02-14T06:11:05.623Z,102380.00
2023-02-14T06:13:33.470Z,102322.56
2023-02-14T06:16:04.210Z,102386.78
2023-02-14T06:18:32.085Z,102316.78
2023-02-14T06:21:00.150Z,102375.31
2023-02-14T06:23:29.938Z,102347.63
2023-02-14T06:25:57.638Z,102365.25
2023-02-14T06:28:27.074Z,102380.75
2023-02-14T06:30:55.573Z,102360.13
2023-02-14T06:33:23.564Z,102346.41
2023-02-14T06:35:54.341Z,102396.81
2023-02-14T06:38:22.220Z,102370.91
2023-02-14T06:40:50.912Z,102332.34
2023-02-14T06:43:19.724Z,102333.63
2023-02-14T06:45:47.746Z,102400.78
2023-02-14T06:48:15.601Z,102326.06
2023-02-14T06:50:43.393Z,102362.31
2023-02-14T06:53:11.637Z,102327.56
2023-02-14T06:55:42.961Z,102407.63
2023-02-14T06:58:11.917Z,102353.25
2023-02-14T07:00:42.460Z,102411.63
2023-02-14T07:03:10.567Z,102418.94
2023-02-14T07:05:38.434Z,102417.72
2023-02-14T07:08:07.553Z,102388.59
2023-02-14T07:10:35.611Z,102303.28
2023-02-14T07:13:04.271Z,102392.94
2023-02-14T07:15:32.385Z,102428.41
2023-02-14T07:18:00.400Z,102380.59
2023-02-14T07:20:28.777Z,102415.44
2023-02-14T07:22:56.797Z,102418.03
2023-02-14T07:25:26.077Z,102415.75
2023-02-14T07:27:54.085Z,102434.88
2023-02-14T07:30:22.210Z,102293.47
2023-02-14T07:32:50.074Z,102318.97
2023-02-14T07:35:17.959Z,102423.75
2023-02-14T07:37:46.435Z,102341.63
2023-02-14T07:40:15.348Z,102400.84
2023-02-14T07:42:44.067Z,102404.91
2023-02-14T07:45:27.117Z,102404.00
2023-02-14T07:47:55.931Z,102454.31
2023-02-14T07:50:24.243Z,102452.22
2023-02-14T07:52:52.204Z,102439.84
2023-02-14T07:55:20.635Z,102389.75
2023-02-14T07:57:49.736Z,102377.50
2023-02-14T08:00:18.728Z,102337.03
2023-02-14T08:02:46.554Z,102442.19
2023-02-14T08:05:15.149Z,102416.22
2023-02-14T08:07:44.058Z,102423.28
2023-02-14T08:10:13.197Z,102435.28
2023-02-14T08:12:59.831Z,102419.00
2023-02-14T08:15:50.747Z,102441.97
2023-02-14T08:18:19.741Z,102412.44
2023-02-14T08:20:51.216Z,102421.69
2023-02-14T08:23:20.668Z,102399.66
2023-02-14T08:25:50.878Z,102436.53
2023-02-14T08:28:20.941Z,102382.03
2023-02-14T08:30:50.107Z,102432.72
2023-02-14T08:33:18.158Z,102440.84
2023-02-14T08:35:45.976Z,102389.41
2023-02-14T08:38:13.885Z,102431.47
2023-02-14T08:40:42.023Z,102334.88
2023-02-14T08:43:15.301Z,102424.84
2023-02-14T08:45:43.803Z,102374.56
2023-02-14T08:48:13.184Z,102298.59
2023-02-14T08:50:41.299Z,102431.97
2023-02-14T08:53:11.379Z,102401.59
2023-02-14T08:55:40.450Z,102330.69
2023-02-14T08:58:11.684Z,102390.66
2023-02-14T09:00:39.565Z,102405.53
2023-02-14T09:03:07.575Z,102330.81
2023-02-14T09:05:35.261Z,102439.50
2023-02-14T09:08:03.864Z,102432.81
2023-02-14T09:10:31.738Z,102417.34
2023-02-14T09:12:59.644Z,102415.22
2023-02-14T09:15:27.713Z,102126.06
2023-02-14T09:17:55.684Z,102396.81
2023-02-14T09:20:23.642Z,102421.19
2023-02-14T09:22:51.742Z,102341.72
2023-02-14T09:25:19.669Z,102416.09
2023-02-14T09:27:47.586Z,102404.44
2023-02-14T09:30:16.022Z,102383.00
2023-02-14T09:32:43.979Z,102396.72
2023-02-14T09:35:11.789Z,102341.63
2023-02-14T09:37:59.347Z,102431.34
2023-02-14T09:40:27.165Z,102392.03
2023-02-14T09:43:24.532Z,102411.69
2023-02-14T09:45:56.693Z,102412.28
2023-02-14T09:48:39.484Z,102406.59
2023-02-14T09:51:27.887Z,102406.25
2023-02-14T09:54:04.684Z,102396.56
2023-02-14T09:56:52.032Z,102339.78
2023-02-14T09:59:49.954Z,102377.28
2023-02-14T10:02:49.460Z,102392.69
2023-02-14T10:05:26.400Z,102369.28
2023-02-14T10:10:53.873Z,102366.88
2023-02-14T10:13:41.430Z,102345.47
2023-02-14T10:16:33.754Z,102339.59
2023-02-14T10:19:14.911Z,102361.84
2023-02-14T10:21:53.679Z,102387.59
2023-02-14T10:24:26.314Z,102371.19
2023-02-14T10:27:02.734Z,102331.69
2023-02-14T10:29:32.916Z,102370.50
2023-02-14T10:32:02.849Z,102379.97
2023-02-14T10:34:37.984Z,102340.03
2023-02-14T10:37:23.278Z,102377.75
2023-02-14T10:39:56.997Z,102375.47
2023-02-14T10:42:44.328Z,102380.31
2023-02-14T10:45:20.308Z,102361.91
2023-02-14T10:48:33.108Z,102336.84
2023-02-14T10:51:25.509Z,102306.16
2023-02-14T10:54:18.204Z,102355.31
2023-02-14T10:57:00.588Z,102068.41
2023-02-14T10:59:39.701Z,102332.50
2023-02-14T11:02:15.798Z,102347.03
2023-02-14T11:04:47.345Z,102319.75
2023-02-14T11:07:17.874Z,102346.34
2023-02-14T11:09:47.248Z,102343.25
2023-02-14T11:12:33.616Z,102348.09
2023-02-14T11:15:14.113Z,102338.66
2023-02-14T11:17:42.647Z,102338.41
2023-02-14T11:20:20.365Z,102324.38
2023-02-14T11:22:49.549Z,102262.00
2023-02-14T11:25:23.771Z,102240.00
2023-02-14T11:28:07.115Z,102265.56
2023-02-14T11:30:44.213Z,102144.63
2023-02-14T11:33:40.752Z,102317.06
2023-02-14T11:36:15.416Z,102312.13
2023-02-14T11:38:46.245Z,102310.22
2023-02-14T11:41:17.175Z,102258.72
2023-02-14T11:43:45.253Z,102228.09
2023-02-14T11:46:15.461Z,102301.72
2023-02-14T11:49:04.398Z,102304.53
2023-02-14T11:51:45.582Z,102275.63
2023-02-14T11:54:27.307Z,102247.06
2023-02-14T11:57:01.609Z,102245.53
2023-02-14T11:59:51.278Z,102216.84
2023-02-14T12:02:25.367Z,102282.47
2023-02-14T12:05:00.233Z,102287.31
2023-02-14T12:07:30.973Z,102271.38
2023-02-14T12:10:12.418Z,102276.69
2023-02-14T12:12:58.101Z,102268.28
2023-02-14T12:15:42.851Z,102256.97
2023-02-14T12:18:38.319Z,102269.16
2023-02-14T12:21:19.608Z,102272.44
2023-02-14T12:23:49.155Z,102259.56
2023-02-14T12:26:33.554Z,102252.25
2023-02-14T12:29:20.146Z,102258.88
2023-02-14T12:31:50.122Z,102260.75
2023-02-14T12:34:21.626Z,102258.28
2023-02-14T12:37:05.326Z,102265.69
2023-02-14T12:40:03.728Z,102216.25
2023-02-14T12:42:46.383Z,102246.22
2023-02-14T12:45:25.809Z,102248.69
2023-02-14T12:48:06.543Z,102244.09
2023-02-14T12:50:38.017Z,102123.28
2023-02-14T12:53:43.793Z,102210.47
2023-02-14T12:56:44.499Z,102225.91
2023-02-14T12:59:57.913Z,102226.47
2023-02-14T13:02:57.386Z,102220.44
2023-02-14T13:05:40.348Z,102215.19
2023-02-14T13:08:22.719Z,102209.63
2023-02-14T13:11:29.874Z,102204.50
2023-02-14T13:14:12.683Z,102156.03
2023-02-14T13:17:08.791Z,102199.38
2023-02-14T13:20:18.166Z,102167.25
2023-02-14T13:22:48.718Z,102190.84
2023-02-14T13:25:34.413Z,102186.66
2023-02-14T13:28:12.933Z,102188.88
2023-02-14T13:30:43.298Z,102159.34
2023-02-14T13:33:38.441Z,102171.56
2023-02-14T13:36:14.780Z,102149.16
2023-02-14T13:38:52.505Z,102165.50
2023-02-14T13:41:22.747Z,102156.94
2023-02-14T13:44:03.201Z,102143.84
2023-02-14T13:46:34.625Z,102144.81
2023-02-14T13:49:33.369Z,102146.72
2023-02-14T13:52:06.528Z,102138.69
2023-02-14T13:54:46.282Z,102138.81
2023-02-14T13:57:31.684Z,102094.94
2023-02-14T14:00:18.111Z,102129.31
2023-02-14T14:02:51.809Z,102132.28
2023-02-14T14:05:41.539Z,102125.78
2023-02-14T14:08:21.571Z,102122.66
2023-02-14T14:10:55.326Z,102112.28
2023-02-14T14:13:41.347Z,102117.38
2023-02-14T14:16:25.707Z,102115.59
2023-02-14T14:19:01.798Z,102077.31
2023-02-14T14:21:41.716Z,102051.16
2023-02-14T14:24:26.826Z,102063.50
2023-02-14T14:27:19.938Z,102106.34
2023-02-14T14:29:52.177Z,102105.13
2023-02-14T14:32:30.608Z,102089.59
2023-02-14T14:35:12.362Z,102035.59
2023-02-14T14:37:56.855Z,102102.06
2023-02-14T14:40:30.068Z,102097.44
2023-02-14T14:43:17.996Z,102099.28
2023-02-14T14:45:47.941Z,102102.41
2023-02-14T14:48:34.174Z,102004.78
2023-02-14T14:51:03.887Z,102102.41
2023-02-14T14:53:58.760Z,102024.91
2023-02-14T14:56:33.472Z,102078.66
2023-02-14T14:59:28.001Z,102092.84
2023-02-14T15:01:57.237Z,102087.41
2023-02-14T15:04:36.165Z,102086.81
2023-02-14T15:07:28.570Z,102093.00
2023-02-14T15:10:02.745Z,102098.84
2023-02-14T15:12:49.372Z,102097.94
2023-02-14T15:15:18.831Z,102094.03
2023-02-14T15:17:47.392Z,102075.47
2023-02-14T15:20:21.580Z,102098.22
2023-02-14T15:22:52.212Z,102025.19
2023-02-14T15:25:23.764Z,101985.53
2023-02-14T15:27:52.365Z,102029.53
2023-02-14T15:30:20.804Z,102076.06
2023-02-14T15:32:50.602Z,102086.34
2023-02-14T15:35:24.677Z,102095.19
2023-02-14T15:37:53.420Z,102032.91
2023-02-14T15:40:34.848Z,102040.34
2023-02-14T15:43:33.497Z,102089.13
2023-02-14T15:46:29.363Z,102058.03
2023-02-14T15:49:01.456Z,101983.94
2023-02-14T15:51:33.753Z,102022.13
2023-02-14T15:54:07.713Z,102020.78
2023-02-14T15:56:49.185Z,102045.41
2023-02-14T15:59:26.602Z,102070.81
2023-02-14T16:02:04.173Z,102071.66
2023-02-14T16:04:34.233Z,102069.75
2023-02-14T16:07:26.211Z,102065.06
2023-02-14T16:10:19.332Z,102072.59
2023-02-14T16:13:14.088Z,102067.66
2023-02-14T16:16:17.207Z,101948.47
2023-02-14T16:18:59.670Z,102072.59
2023-02-14T16:21:31.448Z,102061.88
2023-02-14T16:24:14.696Z,102070.97
2023-02-14T16:26:46.449Z,102032.06
2023-02-14T16:29:19.805Z,102057.63
2023-02-14T16:34:43.257Z,102065.53
2023-02-14T16:37:22.624Z,102072.84
2023-02-14T16:39:54.316Z,101975.94
2023-02-14T16:42:22.160Z,102072.84
2023-02-14T16:44:51.017Z,102066.34
2023-02-14T16:47:20.520Z,102082.91
2023-02-14T16:49:50.039Z,102034.34
2023-02-14T16:52:23.457Z,102031.78
2023-02-14T16:54:51.885Z,102031.19
2023-02-14T16:57:27.677Z,102071.28
2023-02-14T16:59:59.064Z,102049.13
2023-02-14T17:02:28.683Z,102039.47
2023-02-14T17:04:57.938Z,101915.91
2023-02-14T17:07:29.751Z,102068.91
2023-02-14T17:10:07.178Z,101999.09
2023-02-14T17:12:40.738Z,102054.81
2023-02-14T17:15:14.936Z,101986.25
2023-02-14T17:17:43.783Z,101976.72
2023-02-14T17:20:13.241Z,101827.16
2023-02-14T17:22:45.458Z,102061.25
2023-02-14T17:25:14.416Z,101983.16
2023-02-14T17:27:44.424Z,101899.31
2023-02-14T17:30:14.666Z,102029.81
2023-02-14T17:32:44.770Z,102059.03
2023-02-14T17:35:14.390Z,101988.94
2023-02-14T17:37:45.562Z,101997.19
2023-02-14T17:40:15.209Z,102002.13
2023-02-14T17:42:43.315Z,101954.53
2023-02-14T17:45:12.058Z,101940.91
2023-02-14T17:47:43.480Z,102063.41
2023-02-14T17:50:13.290Z,102062.66
2023-02-14T17:52:42.764Z,102058.22
2023-02-14T17:55:11.268Z,102024.66
2023-02-14T17:57:41.291Z,101982.34
2023-02-14T18:00:11.764Z,102002.13
2023-02-14T18:02:42.547Z,102067.81
2023-02-14T18:05:10.562Z,102009.13
2023-02-14T18:07:38.873Z,102072.13
2023-02-14T18:10:07.568Z,102060.66
2023-02-14T18:12:36.799Z,102037.66
2023-02-14T18:15:06.182Z,102066.03
2023-02-14T18:17:35.204Z,102079.03
2023-02-14T18:20:05.471Z,102075.13
2023-02-14T18:22:33.369Z,102017.91
2023-02-14T18:25:01.117Z,102068.78
2023-02-14T18:27:29.223Z,101988.25
2023-02-14T18:29:57.128Z,102046.28
2023-02-14T18:32:26.273Z,102064.16
2023-02-14T18:34:54.141Z,102059.78
2023-02-14T18:37:22.418Z,101990.31
2023-02-14T18:39:50.400Z,102058.94
2023-02-14T18:42:19.002Z,102073.88
2023-02-14T18:45:12.320Z,102071.50
2023-02-14T18:47:40.384Z,102079.41
2023-02-14T18:50:09.647Z,102072.66
2023-02-14T18:52:38.321Z,102043.47
2023-02-14T18:55:06.629Z,102011.81
2023-02-14T18:57:36.368Z,102069.50
2023-02-14T19:00:07.389Z,102076.56
2023-02-14T19:02:36.221Z,102071.97
2023-02-14T19:05:04.521Z,102014.41
2023-02-14T19:07:33.323Z,101980.84
2023-02-14T19:10:02.566Z,101968.97
2023-02-14T19:12:34.413Z,101889.16
2023-02-14T19:15:03.807Z,102043.41
2023-02-14T19:17:32.789Z,101958.69
2023-02-14T19:20:08.954Z,102066.38
2023-02-14T19:22:41.339Z,102068.03
2023-02-14T19:25:09.685Z,102071.00
2023-02-14T19:27:37.820Z,101989.31
2023-02-14T19:30:07.132Z,102017.94
2023-02-14T19:32:36.134Z,101986.59
2023-02-14T19:35:04.063Z,102075.03
2023-02-14T19:37:35.953Z,102020.72
2023-02-14T19:40:04.224Z,102042.44
2023-02-14T19:42:32.428Z,102066.22
2023-02-14T19:45:00.348Z,102030.19
2023-02-14T19:47:45.721Z,101966.47
2023-02-14T19:50:14.666Z,102071.97
2023-02-14T19:52:44.046Z,102024.03
2023-02-14T19:55:21.630Z,102058.31
2023-02-14T19:57:49.608Z,101992.00
2023-02-14T20:00:18.103Z,102065.44
2023-02-14T20:02:48.302Z,102039.63
2023-02-14T20:05:19.455Z,102065.44
2023-02-14T20:07:52.359Z,102057.53
2023-02-14T20:10:20.857Z,102063.78
2023-02-14T20:12:48.975Z,101998.19
2023-02-14T20:15:16.846Z,102021.75
2023-02-14T20:17:45.912Z,102020.94
2023-02-14T20:20:18.496Z,102060.88
2023-02-14T20:22:49.018Z,102060.38
2023-02-14T20:25:16.883Z,101987.19
2023-02-14T20:27:44.743Z,102057.53
2023-02-14T20:30:14.763Z,102037.41
2023-02-14T20:32:42.631Z,101980.19
2023-02-14T20:35:10.439Z,102002.31
2023-02-14T20:37:38.931Z,101865.22
2023-02-14T20:40:09.971Z,102059.31
2023-02-14T20:42:40.635Z,102033.50
2023-02-14T20:45:08.633Z,102043.16
2023-02-14T20:47:39.004Z,101944.06
2023-02-14T20:50:10.213Z,102046.69
2023-02-14T20:52:38.184Z,102013.09
2023-02-14T20:55:06.807Z,102058.34
2023-02-14T20:57:35.669Z,102060.59
2023-02-14T21:00:07.065Z,102026.53
2023-02-14T21:02:35.199Z,102055.88
2023-02-14T21:05:03.318Z,102016.91
2023-02-14T21:07:31.306Z,102029.00
2023-02-14T21:09:59.458Z,101959.31
2023-02-14T21:12:28.172Z,102052.44
2023-02-14T21:14:56.024Z,101864.91
2023-02-14T21:17:24.921Z,102019.09
2023-02-14T21:19:52.777Z,102047.88
2023-02-14T21:22:20.590Z,102001.38
2023-02-14T21:24:48.507Z,102019.47
2023-02-14T21:27:16.582Z,102045.72
2023-02-14T21:29:45.685Z,102015.31
2023-02-14T21:32:13.573Z,102007.66
2023-02-14T21:34:41.691Z,101979.00
2023-02-14T21:37:09.421Z,101945.56
2023-02-14T21:39:38.254Z,102026.19
2023-02-14T21:42:07.777Z,101928.66
2023-02-14T21:44:54.117Z,102020.69
2023-02-14T21:47:21.964Z,102014.44
2023-02-14T21:50:08.151Z,102039.47
2023-02-14T21:52:36.796Z,102000.84
2023-02-14T21:55:05.166Z,102042.03
2023-02-14T21:57:33.433Z,102031.78
2023-02-14T22:00:04.015Z,102037.78
2023-02-14T22:02:39.857Z,102035.78
2023-02-14T22:05:08.609Z,101987.91
2023-02-14T22:07:38.768Z,101970.94
2023-02-14T22:10:07.535Z,102037.09
2023-02-14T22:12:36.259Z,102007.63
2023-02-14T22:15:06.135Z,102042.44
2023-02-14T22:17:34.423Z,102015.16
2023-02-14T22:20:06.217Z,102035.75
2023-02-14T22:22:34.721Z,102047.53
2023-02-14T22:25:04.454Z,102049.50
2023-02-14T22:27:32.879Z,102047.63
2023-02-14T22:30:04.211Z,102050.59
2023-02-14T22:32:32.641Z,102014.16
2023-02-14T22:35:02.986Z,102055.34
2023-02-14T22:37:32.678Z,102023.25
2023-02-14T22:40:00.731Z,102051.03
2023-02-14T22:42:32.637Z,102050.19
2023-02-14T22:45:02.295Z,102022.94
2023-02-14T22:47:32.590Z,102057.53
2023-02-14T22:50:01.418Z,102027.75
2023-02-14T22:52:29.407Z,102048.88
2023-02-14T22:54:57.313Z,101980.34
2023-02-14T22:57:25.854Z,102054.28
2023-02-14T22:59:54.463Z,102013.53
2023-02-14T23:02:22.826Z,102046.22
2023-02-14T23:04:51.274Z,102045.91
2023-02-14T23:07:20.376Z,102048.38
2023-02-14T23:09:50.726Z,101984.91
2023-02-14T23:12:39.565Z,102030.47
2023-02-14T23:15:28.522Z,102047.44
2023-02-14T23:18:14.615Z,102030.53
2023-02-14T23:21:01.608Z,101973.84
2023-02-14T23:23:34.426Z,101992.59
2023-02-14T23:26:03.960Z,102047.50
2023-02-14T23:28:31.877Z,102010.97
2023-02-14T23:31:03.377Z,102043.72
2023-02-14T23:33:32.837Z,102042.06
2023-02-14T23:36:04.040Z,102026.63
2023-02-14T23:38:32.304Z,102045.72
2023-02-14T23:41:28.016Z,102034.31
2023-02-14T23:43:56.336Z,101983.66
2023-02-14T23:46:24.368Z,102030.03
2023-02-14T23:48:52.173Z,102029.94
2023-02-14T23:51:20.553Z,102025.59
2023-02-14T23:53:49.024Z,101984.47
2023-02-14T23:56:19.206Z,102021.69
2023-02-14T23:58:48.694Z,102015.69
